Time;durP1;ratioP1;P1;durP2;ratioP2;P2;SDS_P1;SDS_P2;PMS_P1;PMS_P2;Temp;Humidity;BMP_temperature;BMP_pressure;BME280_temperature;BME280_humidity;BME280_pressure;Samples;Min_cycle;Max_cycle;Signal;HPM_P1;HPM_P2
2022/07/14 00:00:33;;;;;;;10.10;2.05;;;;;;;;;;5086906;28;20105;-67
2022/07/14 00:03:01;;;;;;;10.45;1.90;;;;;;;;;;5076620;28;20048;-66
2022/07/14 00:05:29;;;;;;;6.13;1.60;;;;;;;;;;5086696;28;20048;-66
2022/07/14 00:07:57;;;;;;;9.80;1.90;;;;;;;;;;5078605;28;20075;-66
2022/07/14 00:10:25;;;;;;;14.40;2.88;;;;;;;;;;5076231;28;20052;-66
2022/07/14 00:12:53;;;;;;;6.18;1.83;;;;;;;;;;5087093;28;20075;-66
2022/07/14 00:15:20;;;;;;;8.27;2.05;;;;;;;;;;5080899;28;20051;-66
2022/07/14 00:17:47;;;;;;;9.35;1.73;;;;;;;;;;5074118;28;20071;-66
2022/07/14 00:20:14;;;;;;;10.63;2.00;;;;;;;;;;5084661;28;20079;-66
2022/07/14 00:22:43;;;;;;;9.07;1.80;;;;;;;;;;5076220;28;20542;-66
2022/07/14 00:25:11;;;;;;;8.40;1.80;;;;;;;;;;5084910;28;20063;-66
2022/07/14 00:27:38;;;;;;;12.07;1.83;;;;;;;;;;5083653;28;20047;-66
2022/07/14 00:30:05;;;;;;;10.18;1.38;;;;;;;;;;5085801;28;20054;-66
2022/07/14 00:32:34;;;;;;;11.88;1.80;;;;;;;;;;5074874;28;20048;-65
2022/07/14 00:35:01;;;;;;;12.50;1.67;;;;;;;;;;5088129;28;20044;-66
2022/07/14 00:37:28;;;;;;;8.50;1.90;;;;;;;;;;5086998;28;20047;-66
2022/07/14 00:39:56;;;;;;;7.38;1.20;;;;;;;;;;5082914;28;20457;-66
2022/07/14 00:42:32;;;;;;;7.72;1.63;;;;;;;;;;5083551;28;20098;-66
2022/07/14 00:45:00;;;;;;;10.65;1.50;;;;;;;;;;5089666;28;20055;-66
2022/07/14 00:47:27;;;;;;;9.23;1.98;;;;;;;;;;5084735;28;20090;-66
2022/07/14 00:49:55;;;;;;;10.52;1.65;;;;;;;;;;5089081;28;20090;-66
2022/07/14 00:52:22;;;;;;;9.07;2.03;;;;;;;;;;5086345;28;20052;-66
2022/07/14 00:54:49;;;;;;;9.05;1.77;;;;;;;;;;5077962;28;20048;-65
2022/07/14 00:57:19;;;;;;;9.27;2.13;;;;;;;;;;5083160;28;20056;-66
2022/07/14 00:59:47;;;;;;;10.10;1.80;;;;;;;;;;5081534;28;20127;-66
2022/07/14 01:02:14;;;;;;;11.90;1.90;;;;;;;;;;5080597;28;20124;-66
2022/07/14 01:04:41;;;;;;;11.52;2.03;;;;;;;;;;5080826;28;20702;-67
2022/07/14 01:07:08;;;;;;;9.43;2.30;;;;;;;;;;5086697;28;20083;-66
2022/07/14 01:09:36;;;;;;;12.07;1.90;;;;;;;;;;5082775;28;20508;-66
2022/07/14 01:12:03;;;;;;;12.27;2.20;;;;;;;;;;5083661;28;20040;-66
2022/07/14 01:14:32;;;;;;;7.88;1.95;;;;;;;;;;5079325;28;20067;-67
2022/07/14 01:16:59;;;;;;;7.47;1.80;;;;;;;;;;5080796;28;20660;-66
2022/07/14 01:19:26;;;;;;;7.40;1.80;;;;;;;;;;5083092;28;20572;-66
2022/07/14 01:21:56;;;;;;;7.75;2.20;;;;;;;;;;5086555;28;20048;-66
2022/07/14 01:24:23;;;;;;;7.45;2.15;;;;;;;;;;5084666;28;20101;-66
2022/07/14 01:26:51;;;;;;;13.55;2.17;;;;;;;;;;5086382;28;20546;-66
2022/07/14 01:29:18;;;;;;;10.25;1.90;;;;;;;;;;5080147;28;20118;-67
2022/07/14 01:31:46;;;;;;;8.50;1.98;;;;;;;;;;5091070;28;20103;-66
2022/07/14 01:34:13;;;;;;;10.98;2.17;;;;;;;;;;5088086;28;20059;-66
2022/07/14 01:36:41;;;;;;;8.25;1.80;;;;;;;;;;5092183;28;20530;-66
2022/07/14 01:39:09;;;;;;;15.90;2.22;;;;;;;;;;5083543;28;20047;-67
2022/07/14 01:41:36;;;;;;;9.10;2.10;;;;;;;;;;5086680;28;20047;-66
2022/07/14 01:44:04;;;;;;;9.48;1.80;;;;;;;;;;5082942;28;20090;-66
2022/07/14 01:46:31;;;;;;;10.35;2.42;;;;;;;;;;5086856;28;20060;-65
2022/07/14 01:48:58;;;;;;;10.15;2.20;;;;;;;;;;5083300;28;20512;-66
2022/07/14 01:51:26;;;;;;;6.78;1.98;;;;;;;;;;5091788;28;20051;-66
2022/07/14 01:53:53;;;;;;;12.38;2.10;;;;;;;;;;5080407;28;20133;-66
2022/07/14 01:56:22;;;;;;;8.43;2.17;;;;;;;;;;5083486;28;20139;-66
2022/07/14 01:58:49;;;;;;;8.95;2.50;;;;;;;;;;5077308;28;20040;-65
2022/07/14 02:04:02;;;;;;;7.20;2.28;;;;;;;;;;5084062;28;20062;-66
2022/07/14 02:06:30;;;;;;;12.27;2.70;;;;;;;;;;5085959;28;20125;-67
2022/07/14 02:08:57;;;;;;;9.57;2.40;;;;;;;;;;5084915;28;20083;-65
2022/07/14 02:14:11;;;;;;;10.05;2.65;;;;;;;;;;5082714;28;20136;-66
2022/07/14 02:16:38;;;;;;;7.57;1.88;;;;;;;;;;5080475;28;20647;-65
2022/07/14 02:19:06;;;;;;;10.40;2.20;;;;;;;;;;5078514;28;20044;-66
2022/07/14 02:21:33;;;;;;;12.88;1.95;;;;;;;;;;5078011;28;20051;-66
2022/07/14 02:24:00;;;;;;;10.65;1.88;;;;;;;;;;5079242;28;20051;-66
2022/07/14 02:26:29;;;;;;;10.88;2.38;;;;;;;;;;5076739;28;20530;-66
2022/07/14 02:28:56;;;;;;;9.38;3.00;;;;;;;;;;5074415;28;20052;-66
2022/07/14 02:31:23;;;;;;;12.98;2.92;;;;;;;;;;5083905;28;20728;-66
2022/07/14 02:33:50;;;;;;;9.82;2.65;;;;;;;;;;5082660;28;20044;-66
2022/07/14 02:36:17;;;;;;;8.23;2.30;;;;;;;;;;5085044;28;20093;-66
2022/07/14 02:38:45;;;;;;;12.60;2.60;;;;;;;;;;5084078;28;20098;-66
2022/07/14 02:41:13;;;;;;;9.23;2.83;;;;;;;;;;5084055;28;20110;-66
2022/07/14 02:43:42;;;;;;;8.15;2.22;;;;;;;;;;5081059;28;20051;-66
2022/07/14 02:46:09;;;;;;;9.55;2.53;;;;;;;;;;5085306;28;20060;-66
2022/07/14 02:48:36;;;;;;;11.18;2.38;;;;;;;;;;5082532;28;20040;-67
2022/07/14 02:51:04;;;;;;;10.38;2.42;;;;;;;;;;5080396;28;20093;-65
2022/07/14 02:53:34;;;;;;;11.70;2.85;;;;;;;;;;5081030;28;20101;-65
2022/07/14 02:56:01;;;;;;;12.88;2.35;;;;;;;;;;5067384;28;20523;-66
2022/07/14 02:58:28;;;;;;;9.10;2.60;;;;;;;;;;5079060;28;20036;-65
2022/07/14 03:00:57;;;;;;;10.25;2.70;;;;;;;;;;5077436;28;20051;-66
2022/07/14 03:03:24;;;;;;;7.60;2.20;;;;;;;;;;5078852;28;20043;-66
2022/07/14 03:05:52;;;;;;;12.07;2.45;;;;;;;;;;5086621;28;20047;-66
2022/07/14 03:08:19;;;;;;;12.63;2.70;;;;;;;;;;5076106;28;20356;-66
2022/07/14 03:10:46;;;;;;;12.57;3.05;;;;;;;;;;5081712;28;20052;-65
2022/07/14 03:13:14;;;;;;;9.52;2.80;;;;;;;;;;5078963;28;20090;-66
2022/07/14 03:15:41;;;;;;;8.20;2.38;;;;;;;;;;5082907;28;20052;-66
2022/07/14 03:18:09;;;;;;;9.90;2.83;;;;;;;;;;5082511;28;20105;-65
2022/07/14 03:20:37;;;;;;;8.55;2.25;;;;;;;;;;5084310;28;20052;-66
2022/07/14 03:23:04;;;;;;;13.85;2.97;;;;;;;;;;5077067;28;20090;-66
2022/07/14 03:25:31;;;;;;;8.77;2.38;;;;;;;;;;5082128;28;20051;-65
2022/07/14 03:27:58;;;;;;;7.90;2.50;;;;;;;;;;5082622;28;20059;-65
2022/07/14 03:30:26;;;;;;;8.85;2.65;;;;;;;;;;5077692;28;20048;-66
2022/07/14 03:32:53;;;;;;;11.00;2.35;;;;;;;;;;5080354;28;20056;-66
2022/07/14 03:35:21;;;;;;;10.93;2.35;;;;;;;;;;5066894;28;20060;-66
2022/07/14 03:37:49;;;;;;;12.43;2.35;;;;;;;;;;5077343;28;21175;-66
2022/07/14 03:40:16;;;;;;;12.73;2.85;;;;;;;;;;5080353;28;20048;-66
2022/07/14 03:42:44;;;;;;;9.25;2.38;;;;;;;;;;5085560;28;20502;-66
2022/07/14 03:45:11;;;;;;;9.15;2.35;;;;;;;;;;5084609;28;20054;-66
2022/07/14 03:47:38;;;;;;;8.35;2.95;;;;;;;;;;5077466;28;20053;-66
2022/07/14 03:50:06;;;;;;;12.05;3.25;;;;;;;;;;5075654;28;20070;-66
2022/07/14 03:52:34;;;;;;;12.18;3.28;;;;;;;;;;5074476;28;20299;-65
2022/07/14 03:55:02;;;;;;;9.80;2.97;;;;;;;;;;5079691;28;20047;-66
2022/07/14 03:57:29;;;;;;;9.02;2.85;;;;;;;;;;5083351;28;20376;-66
2022/07/14 03:59:56;;;;;;;10.32;2.60;;;;;;;;;;5085279;28;20764;-66
2022/07/14 04:02:23;;;;;;;8.77;2.63;;;;;;;;;;5090388;28;20526;-66
2022/07/14 04:04:50;;;;;;;7.72;2.28;;;;;;;;;;5085694;28;20228;-66
2022/07/14 04:07:17;;;;;;;12.00;2.55;;;;;;;;;;5079788;28;20052;-66
2022/07/14 04:09:46;;;;;;;9.07;2.60;;;;;;;;;;5081312;28;20056;-66
2022/07/14 04:12:14;;;;;;;6.82;2.17;;;;;;;;;;5080706;28;20072;-66
2022/07/14 04:14:41;;;;;;;11.20;2.38;;;;;;;;;;5084021;28;20058;-66
2022/07/14 04:17:08;;;;;;;12.43;2.63;;;;;;;;;;5078065;28;20100;-66
2022/07/14 04:19:36;;;;;;;10.07;2.17;;;;;;;;;;5084547;28;20052;-66
2022/07/14 04:22:03;;;;;;;5.97;2.20;;;;;;;;;;5080094;28;20056;-66
2022/07/14 04:24:31;;;;;;;8.48;2.38;;;;;;;;;;5081209;28;20044;-66
2022/07/14 04:27:00;;;;;;;12.45;3.25;;;;;;;;;;5082790;28;20048;-66
2022/07/14 04:29:27;;;;;;;10.60;2.67;;;;;;;;;;5077845;28;20105;-66
2022/07/14 04:31:54;;;;;;;7.65;2.78;;;;;;;;;;5083329;28;20052;-66
2022/07/14 04:34:21;;;;;;;11.57;2.55;;;;;;;;;;5076944;28;20060;-66
2022/07/14 04:36:48;;;;;;;8.90;2.30;;;;;;;;;;5074864;27;20048;-66
2022/07/14 04:39:16;;;;;;;12.07;2.30;;;;;;;;;;5078255;28;20048;-65
2022/07/14 04:41:43;;;;;;;8.98;2.30;;;;;;;;;;5073557;28;20045;-65
2022/07/14 04:44:11;;;;;;;10.63;2.00;;;;;;;;;;5069497;28;20060;-65
2022/07/14 04:46:38;;;;;;;8.00;2.10;;;;;;;;;;5076370;28;20730;-65
2022/07/14 04:52:05;;;;;;;8.85;2.38;;;;;;;;;;5016859;28;20137;-66
2022/07/14 04:54:33;;;;;;;7.72;2.05;;;;;;;;;;5017611;28;20092;-65
2022/07/14 04:57:00;;;;;;;12.65;2.35;;;;;;;;;;5045767;28;20044;-65
2022/07/14 04:59:29;;;;;;;12.07;2.22;;;;;;;;;;5074861;28;20051;-66
2022/07/14 05:01:56;;;;;;;10.40;2.40;;;;;;;;;;5082209;28;20055;-66
2022/07/14 05:04:24;;;;;;;6.70;2.05;;;;;;;;;;5085092;28;20060;-66
2022/07/14 05:06:51;;;;;;;8.88;2.30;;;;;;;;;;5081270;28;20051;-67
2022/07/14 05:09:18;;;;;;;12.98;2.67;;;;;;;;;;5080867;28;20056;-67
2022/07/14 05:11:46;;;;;;;9.95;2.60;;;;;;;;;;5083991;28;20048;-66
2022/07/14 05:14:13;;;;;;;6.18;2.05;;;;;;;;;;5079615;28;20133;-66
2022/07/14 05:16:44;;;;;;;10.15;2.00;;;;;;;;;;5077110;28;20052;-66
2022/07/14 05:19:11;;;;;;;7.85;1.85;;;;;;;;;;5073513;28;20739;-66
2022/07/14 05:21:39;;;;;;;10.15;2.17;;;;;;;;;;5077387;28;20051;-66
2022/07/14 05:24:06;;;;;;;7.82;1.90;;;;;;;;;;5081570;28;20044;-68
2022/07/14 05:26:33;;;;;;;8.05;1.80;;;;;;;;;;5081129;28;20101;-66
2022/07/14 05:29:00;;;;;;;5.70;1.80;;;;;;;;;;5081320;28;20050;-65
2022/07/14 05:31:28;;;;;;;6.50;1.67;;;;;;;;;;5078629;28;20060;-67
2022/07/14 05:33:56;;;;;;;9.93;2.10;;;;;;;;;;5082342;28;20048;-67
2022/07/14 05:36:24;;;;;;;7.10;1.55;;;;;;;;;;5088262;28;20142;-68
2022/07/14 05:38:51;;;;;;;9.27;2.05;;;;;;;;;;5080175;27;20106;-67
2022/07/14 05:41:19;;;;;;;7.63;1.92;;;;;;;;;;5083809;28;21151;-66
2022/07/14 05:43:47;;;;;;;7.45;1.88;;;;;;;;;;5078462;28;20059;-67
2022/07/14 05:46:14;;;;;;;7.63;1.95;;;;;;;;;;5081316;28;20904;-67
2022/07/14 05:48:42;;;;;;;5.93;1.58;;;;;;;;;;5084544;28;20081;-67
2022/07/14 05:51:11;;;;;;;11.43;2.10;;;;;;;;;;5084112;28;20667;-67
2022/07/14 05:53:39;;;;;;;5.03;1.27;;;;;;;;;;5075096;28;20056;-66
2022/07/14 05:56:06;;;;;;;10.13;1.85;;;;;;;;;;5081961;28;20044;-67
2022/07/14 05:58:34;;;;;;;6.35;1.60;;;;;;;;;;5081251;28;20048;-67
2022/07/14 06:01:01;;;;;;;8.63;1.52;;;;;;;;;;5083509;28;20474;-66
2022/07/14 06:03:28;;;;;;;8.20;1.67;;;;;;;;;;5081657;28;20121;-67
2022/07/14 06:05:55;;;;;;;6.70;1.42;;;;;;;;;;5088784;28;20483;-67
2022/07/14 06:08:24;;;;;;;6.82;1.75;;;;;;;;;;5081044;28;20093;-67
2022/07/14 06:10:51;;;;;;;6.50;1.52;;;;;;;;;;5081119;28;20064;-66
2022/07/14 06:13:18;;;;;;;11.68;1.42;;;;;;;;;;5080270;28;20479;-67
2022/07/14 06:15:46;;;;;;;10.18;1.38;;;;;;;;;;5083742;28;20105;-67
2022/07/14 06:18:14;;;;;;;9.27;1.42;;;;;;;;;;5079988;28;20102;-68
2022/07/14 06:20:42;;;;;;;7.75;1.40;;;;;;;;;;5083118;28;20919;-67
2022/07/14 06:23:10;;;;;;;7.70;1.50;;;;;;;;;;5074260;28;20142;-67
2022/07/14 06:25:39;;;;;;;7.45;1.23;;;;;;;;;;5081993;28;20094;-67
2022/07/14 06:28:06;;;;;;;5.38;1.10;;;;;;;;;;5075546;28;20043;-67
2022/07/14 06:30:34;;;;;;;7.00;1.20;;;;;;;;;;5077450;28;20491;-68
2022/07/14 06:33:01;;;;;;;9.02;1.48;;;;;;;;;;5083647;28;20051;-67
2022/07/14 06:35:29;;;;;;;5.45;0.90;;;;;;;;;;5080394;28;20372;-67
2022/07/14 06:37:56;;;;;;;4.43;0.90;;;;;;;;;;5070488;28;20094;-68
2022/07/14 06:40:24;;;;;;;5.47;0.80;;;;;;;;;;5078486;28;20048;-68
2022/07/14 06:42:52;;;;;;;5.72;0.85;;;;;;;;;;5071107;28;20506;-68
2022/07/14 06:45:20;;;;;;;5.05;0.73;;;;;;;;;;5066284;28;20097;-66
2022/07/14 06:47:47;;;;;;;3.17;0.77;;;;;;;;;;5082923;28;20569;-68
2022/07/14 06:50:14;;;;;;;4.60;0.95;;;;;;;;;;5079196;28;20064;-67
2022/07/14 06:52:42;;;;;;;4.97;0.90;;;;;;;;;;5080482;28;20044;-67
2022/07/14 06:55:10;;;;;;;8.15;1.08;;;;;;;;;;5080433;28;20056;-68
2022/07/14 06:57:37;;;;;;;7.05;1.00;;;;;;;;;;5071611;28;20052;-67
2022/07/14 07:00:07;;;;;;;3.17;0.85;;;;;;;;;;5075122;28;20746;-66
2022/07/14 07:02:36;;;;;;;7.60;1.23;;;;;;;;;;5074667;28;20052;-67
2022/07/14 07:07:48;;;;;;;4.47;0.80;;;;;;;;;;5064774;28;20441;-67
2022/07/14 07:10:15;;;;;;;6.63;0.80;;;;;;;;;;5074072;28;20515;-67
2022/07/14 07:12:42;;;;;;;5.47;0.90;;;;;;;;;;5078672;28;20055;-66
2022/07/14 07:15:11;;;;;;;3.97;0.95;;;;;;;;;;5076117;28;20051;-66
2022/07/14 07:17:39;;;;;;;7.45;1.33;;;;;;;;;;5070888;28;20461;-67
2022/07/14 07:20:07;;;;;;;6.03;0.70;;;;;;;;;;5074260;28;20063;-68
2022/07/14 07:22:34;;;;;;;3.60;0.60;;;;;;;;;;5076520;28;20047;-67
2022/07/14 07:25:02;;;;;;;5.13;0.88;;;;;;;;;;5079110;28;20587;-67
2022/07/14 07:27:29;;;;;;;5.05;1.00;;;;;;;;;;5077211;28;20078;-67
2022/07/14 07:29:57;;;;;;;5.15;0.90;;;;;;;;;;5074606;28;20097;-67
2022/07/14 07:32:25;;;;;;;6.57;0.80;;;;;;;;;;5079845;28;20774;-67
2022/07/14 07:34:52;;;;;;;3.40;0.50;;;;;;;;;;5076452;28;20052;-67
2022/07/14 07:37:20;;;;;;;4.30;0.80;;;;;;;;;;5075214;28;20049;-68
2022/07/14 07:39:47;;;;;;;3.72;0.73;;;;;;;;;;5079000;28;20040;-68
2022/07/14 07:42:14;;;;;;;2.40;0.60;;;;;;;;;;5079032;28;20110;-68
2022/07/14 07:44:41;;;;;;;10.00;0.80;;;;;;;;;;5083294;28;20123;-67
2022/07/14 07:47:09;;;;;;;3.30;0.60;;;;;;;;;;5083057;28;20075;-68
2022/07/14 07:49:37;;;;;;;3.75;1.00;;;;;;;;;;5081348;28;20411;-67
2022/07/14 07:52:05;;;;;;;6.63;1.42;;;;;;;;;;5082147;28;20514;-67
2022/07/14 07:54:32;;;;;;;3.60;0.60;;;;;;;;;;5075469;28;20067;-66
2022/07/14 07:56:59;;;;;;;3.55;0.90;;;;;;;;;;5074993;28;20098;-67
2022/07/14 07:59:27;;;;;;;2.40;0.70;;;;;;;;;;5085562;28;20094;-68
2022/07/14 08:01:54;;;;;;;2.65;0.90;;;;;;;;;;5076026;28;20063;-67
2022/07/14 08:04:22;;;;;;;10.13;1.10;;;;;;;;;;5081751;28;20522;-68
2022/07/14 08:06:50;;;;;;;7.88;1.17;;;;;;;;;;5079411;28;20041;-66
2022/07/14 08:09:17;;;;;;;5.30;1.27;;;;;;;;;;5078724;28;20059;-67
2022/07/14 08:11:45;;;;;;;5.72;0.90;;;;;;;;;;5080559;28;20066;-67
2022/07/14 08:16:53;;;;;;;4.07;1.17;;;;;;;;;;5079912;28;20109;-66
2022/07/14 08:19:20;;;;;;;7.65;0.70;;;;;;;;;;5085506;28;20055;-68
2022/07/14 08:21:48;;;;;;;5.80;0.73;;;;;;;;;;5084151;28;20047;-67
2022/07/14 08:24:18;;;;;;;2.97;0.88;;;;;;;;;;5085144;28;20245;-67
2022/07/14 08:26:46;;;;;;;5.55;0.85;;;;;;;;;;5086181;28;20087;-67
2022/07/14 08:29:13;;;;;;;4.68;0.80;;;;;;;;;;5086957;28;20140;-67
2022/07/14 08:31:40;;;;;;;6.82;1.02;;;;;;;;;;5079819;28;20538;-68
2022/07/14 08:34:08;;;;;;;4.47;0.80;;;;;;;;;;5079987;28;20047;-67
2022/07/14 08:36:35;;;;;;;4.45;0.90;;;;;;;;;;5083399;28;20052;-68
2022/07/14 08:39:05;;;;;;;4.00;0.82;;;;;;;;;;5082196;28;20063;-67
2022/07/14 08:41:33;;;;;;;3.45;0.75;;;;;;;;;;5083632;28;20049;-67
2022/07/14 08:44:01;;;;;;;5.88;0.90;;;;;;;;;;5085500;28;20105;-66
2022/07/14 08:46:29;;;;;;;3.55;0.85;;;;;;;;;;5086662;28;20110;-66
2022/07/14 08:48:57;;;;;;;5.05;0.70;;;;;;;;;;5073082;28;20102;-67
2022/07/14 08:51:25;;;;;;;4.20;0.93;;;;;;;;;;5077732;28;20063;-67
2022/07/14 08:53:53;;;;;;;5.38;0.73;;;;;;;;;;5071691;28;20076;-67
2022/07/14 08:56:20;;;;;;;3.95;0.70;;;;;;;;;;5080757;28;20213;-66
2022/07/14 08:58:49;;;;;;;6.25;0.90;;;;;;;;;;5080590;28;20052;-67
2022/07/14 09:01:17;;;;;;;3.88;0.80;;;;;;;;;;5071296;28;20054;-68
2022/07/14 09:03:44;;;;;;;4.97;0.90;;;;;;;;;;5084231;28;20051;-66
2022/07/14 09:06:12;;;;;;;5.22;1.00;;;;;;;;;;5076518;28;20055;-66
2022/07/14 09:08:56;;;;;;;4.03;1.08;;;;;;;;;;5078554;28;20132;-66
2022/07/14 09:11:23;;;;;;;4.25;1.20;;;;;;;;;;5080990;28;20059;-68
2022/07/14 09:13:52;;;;;;;3.92;1.15;;;;;;;;;;5074533;28;20119;-67
2022/07/14 09:16:20;;;;;;;4.25;0.93;;;;;;;;;;5076050;28;20054;-67
2022/07/14 09:19:03;;;;;;;4.45;1.15;;;;;;;;;;5079153;28;20060;-68
2022/07/14 09:21:30;;;;;;;5.00;0.82;;;;;;;;;;5077948;28;20480;-67
2022/07/14 09:23:58;;;;;;;7.10;1.13;;;;;;;;;;5077883;28;20048;-68
2022/07/14 09:26:25;;;;;;;3.65;1.00;;;;;;;;;;5073565;28;20436;-67
2022/07/14 09:28:54;;;;;;;2.65;0.88;;;;;;;;;;5081777;28;20048;-67
2022/07/14 09:31:24;;;;;;;8.90;1.15;;;;;;;;;;5076908;28;20167;-67
2022/07/14 09:33:51;;;;;;;6.65;1.02;;;;;;;;;;5068676;28;20110;-67
2022/07/14 09:36:28;;;;;;;3.60;0.80;;;;;;;;;;5079207;28;20045;-68
2022/07/14 09:38:58;;;;;;;4.50;0.95;;;;;;;;;;5076380;28;20049;-68
2022/07/14 09:41:26;;;;;;;5.35;0.73;;;;;;;;;;5079334;28;20066;-69
2022/07/14 09:44:09;;;;;;;5.03;0.80;;;;;;;;;;5083501;28;20063;-68
2022/07/14 09:46:50;;;;;;;8.57;0.90;;;;;;;;;;5074713;28;20129;-68
2022/07/14 09:49:18;;;;;;;8.68;1.10;;;;;;;;;;5077756;28;20047;-67
2022/07/14 09:51:52;;;;;;;6.45;0.80;;;;;;;;;;5082393;28;20536;-66
2022/07/14 09:54:34;;;;;;;3.83;0.80;;;;;;;;;;5079798;28;20135;-67
2022/07/14 09:57:02;;;;;;;3.42;0.80;;;;;;;;;;5069097;28;20109;-68
2022/07/14 09:59:31;;;;;;;5.70;0.90;;;;;;;;;;5080655;28;20113;-67
2022/07/14 10:01:58;;;;;;;3.25;0.90;;;;;;;;;;5083214;28;20075;-67
2022/07/14 10:04:25;;;;;;;4.97;0.98;;;;;;;;;;5078230;28;20105;-67
2022/07/14 10:06:53;;;;;;;2.35;0.60;;;;;;;;;;5079267;28;20052;-68
2022/07/14 10:09:20;;;;;;;3.83;0.80;;;;;;;;;;5078410;28;20051;-67
2022/07/14 10:11:48;;;;;;;5.57;1.30;;;;;;;;;;5079944;28;20051;-68
2022/07/14 10:14:16;;;;;;;5.32;1.05;;;;;;;;;;5075827;28;20066;-68
2022/07/14 10:16:45;;;;;;;3.75;0.98;;;;;;;;;;5078421;28;20047;-67
2022/07/14 10:19:12;;;;;;;5.03;1.05;;;;;;;;;;5076305;28;20577;-68
2022/07/14 10:21:40;;;;;;;4.18;0.93;;;;;;;;;;5078358;28;20044;-66
2022/07/14 10:24:07;;;;;;;3.25;0.80;;;;;;;;;;5082000;28;20040;-68
2022/07/14 10:26:35;;;;;;;6.53;1.08;;;;;;;;;;5080456;28;20056;-66
2022/07/14 10:29:04;;;;;;;6.25;0.90;;;;;;;;;;5080361;28;20047;-66
2022/07/14 10:31:40;;;;;;;5.05;1.00;;;;;;;;;;5071527;28;20093;-67
2022/07/14 10:34:15;;;;;;;5.32;1.13;;;;;;;;;;5078610;28;20495;-68
2022/07/14 10:36:45;;;;;;;9.43;1.15;;;;;;;;;;5076241;28;20048;-66
2022/07/14 10:39:17;;;;;;;6.32;0.88;;;;;;;;;;5077299;28;20044;-67
2022/07/14 10:41:52;;;;;;;4.75;0.80;;;;;;;;;;5074687;28;20040;-67
2022/07/14 10:44:21;;;;;;;4.15;0.90;;;;;;;;;;5072706;28;20084;-67
2022/07/14 10:46:49;;;;;;;6.90;1.17;;;;;;;;;;5074816;28;20052;-67
2022/07/14 10:49:18;;;;;;;2.70;0.85;;;;;;;;;;5071256;28;20135;-67
2022/07/14 10:51:46;;;;;;;2.33;0.68;;;;;;;;;;5076641;28;20093;-66
2022/07/14 10:54:15;;;;;;;6.40;0.80;;;;;;;;;;5074682;28;20059;-67
2022/07/14 10:56:43;;;;;;;2.85;0.80;;;;;;;;;;5075225;28;20058;-68
2022/07/14 10:59:29;;;;;;;3.67;0.70;;;;;;;;;;5074179;28;20445;-66
2022/07/14 11:02:14;;;;;;;9.32;1.42;;;;;;;;;;5074882;28;20051;-67
2022/07/14 11:04:59;;;;;;;4.60;0.80;;;;;;;;;;5078735;28;20044;-66
2022/07/14 11:07:38;;;;;;;3.38;0.70;;;;;;;;;;5071450;28;20040;-67
2022/07/14 11:10:06;;;;;;;3.47;0.95;;;;;;;;;;5080315;28;20054;-67
2022/07/14 11:12:34;;;;;;;3.17;0.80;;;;;;;;;;5078701;28;20048;-67
2022/07/14 11:15:01;;;;;;;3.78;1.05;;;;;;;;;;5083226;28;20032;-67
2022/07/14 11:17:41;;;;;;;3.08;0.80;;;;;;;;;;5077228;28;20143;-68
2022/07/14 11:20:11;;;;;;;3.42;0.60;;;;;;;;;;5077318;28;20049;-68
2022/07/14 11:22:41;;;;;;;2.25;0.63;;;;;;;;;;5082952;28;20635;-68
2022/07/14 11:25:09;;;;;;;6.05;1.00;;;;;;;;;;5078828;28;21308;-67
2022/07/14 11:27:38;;;;;;;4.13;0.70;;;;;;;;;;5078941;28;20048;-67
2022/07/14 11:30:19;;;;;;;3.67;1.05;;;;;;;;;;5081934;28;20043;-67
2022/07/14 11:32:46;;;;;;;2.53;0.70;;;;;;;;;;5082321;28;20044;-68
2022/07/14 11:38:01;;;;;;;2.40;0.70;;;;;;;;;;5088200;28;20047;-68
2022/07/14 11:40:41;;;;;;;5.57;0.80;;;;;;;;;;5086260;28;20044;-67
2022/07/14 11:43:27;;;;;;;3.97;1.02;;;;;;;;;;5090094;28;20550;-67
2022/07/14 11:45:55;;;;;;;3.65;0.80;;;;;;;;;;5082220;28;20131;-67
2022/07/14 11:48:22;;;;;;;4.30;0.80;;;;;;;;;;5082069;28;20149;-66
2022/07/14 11:50:50;;;;;;;4.43;0.82;;;;;;;;;;5083379;28;20055;-67
2022/07/14 11:53:19;;;;;;;3.22;0.80;;;;;;;;;;5083745;28;20059;-67
2022/07/14 11:55:46;;;;;;;4.90;1.00;;;;;;;;;;5076894;28;20055;-68
2022/07/14 11:58:15;;;;;;;4.45;0.90;;;;;;;;;;5080539;28;20151;-68
2022/07/14 12:00:53;;;;;;;4.93;0.85;;;;;;;;;;5082287;28;20040;-68
2022/07/14 12:03:21;;;;;;;2.10;0.80;;;;;;;;;;5083802;28;20051;-69
2022/07/14 12:05:52;;;;;;;3.80;0.90;;;;;;;;;;5083201;28;20040;-68
2022/07/14 12:08:24;;;;;;;2.75;0.77;;;;;;;;;;5085063;28;20048;-68
2022/07/14 12:10:52;;;;;;;2.95;0.80;;;;;;;;;;5075566;28;20049;-67
2022/07/14 12:13:19;;;;;;;3.15;0.80;;;;;;;;;;5080299;28;20044;-68
2022/07/14 12:15:47;;;;;;;2.13;0.80;;;;;;;;;;5079733;28;20036;-69
2022/07/14 12:18:14;;;;;;;7.07;1.23;;;;;;;;;;5078585;28;20052;-67
2022/07/14 12:20:42;;;;;;;5.07;1.13;;;;;;;;;;5072775;28;20044;-68
2022/07/14 12:23:10;;;;;;;2.72;0.98;;;;;;;;;;5075545;28;20044;-68
2022/07/14 12:25:39;;;;;;;3.08;1.08;;;;;;;;;;5082870;28;20040;-68
2022/07/14 12:28:07;;;;;;;2.63;0.90;;;;;;;;;;5080832;28;20047;-70
2022/07/14 12:30:45;;;;;;;3.15;0.80;;;;;;;;;;5083741;28;20070;-68
2022/07/14 12:33:13;;;;;;;1.88;0.80;;;;;;;;;;5076706;28;20063;-68
2022/07/14 12:35:41;;;;;;;4.68;1.00;;;;;;;;;;5078544;28;20044;-68
2022/07/14 12:38:09;;;;;;;6.20;1.00;;;;;;;;;;5081100;28;20047;-69
2022/07/14 12:40:36;;;;;;;4.35;1.08;;;;;;;;;;5083299;28;20042;-68
2022/07/14 12:43:08;;;;;;;2.65;0.80;;;;;;;;;;5082624;28;20044;-68
2022/07/14 12:45:59;;;;;;;4.40;0.90;;;;;;;;;;5070545;28;20059;-68
2022/07/14 12:48:27;;;;;;;2.47;1.00;;;;;;;;;;5079345;28;20048;-68
2022/07/14 12:50:54;;;;;;;3.20;0.90;;;;;;;;;;5081329;28;20071;-68
2022/07/14 12:53:21;;;;;;;5.95;0.90;;;;;;;;;;5076493;28;20051;-69
2022/07/14 12:55:48;;;;;;;3.70;1.10;;;;;;;;;;5081558;28;20055;-68
2022/07/14 12:58:17;;;;;;;2.63;1.00;;;;;;;;;;5077920;28;20106;-69
2022/07/14 13:00:45;;;;;;;4.35;1.10;;;;;;;;;;5082797;28;20452;-68
2022/07/14 13:03:13;;;;;;;3.40;1.13;;;;;;;;;;5086093;28;20144;-67
2022/07/14 13:05:45;;;;;;;5.03;1.45;;;;;;;;;;5081412;28;20055;-69
2022/07/14 13:08:31;;;;;;;3.20;1.00;;;;;;;;;;5084645;28;20121;-69
2022/07/14 13:10:59;;;;;;;2.22;1.10;;;;;;;;;;5079717;28;20107;-69
2022/07/14 13:13:31;;;;;;;2.42;0.77;;;;;;;;;;5082826;28;20044;-69
2022/07/14 13:16:18;;;;;;;2.72;0.95;;;;;;;;;;5081157;28;20048;-68
2022/07/14 13:19:18;;;;;;;3.78;0.90;;;;;;;;;;5077766;28;20149;-68
2022/07/14 13:22:03;;;;;;;2.53;0.82;;;;;;;;;;5078677;28;20097;-70
2022/07/14 13:24:31;;;;;;;4.30;1.20;;;;;;;;;;5083069;28;20052;-69
2022/07/14 13:27:03;;;;;;;5.47;1.35;;;;;;;;;;5076440;28;20063;-68
2022/07/14 13:29:32;;;;;;;3.88;0.80;;;;;;;;;;5076716;28;20464;-68
2022/07/14 13:31:59;;;;;;;2.30;1.00;;;;;;;;;;5077138;28;20105;-67
2022/07/14 13:34:28;;;;;;;3.50;1.10;;;;;;;;;;5076812;28;20052;-68
2022/07/14 13:36:55;;;;;;;4.97;1.05;;;;;;;;;;5075961;28;20051;-68
2022/07/14 13:39:23;;;;;;;5.32;1.00;;;;;;;;;;5073514;28;20044;-67
2022/07/14 13:41:50;;;;;;;3.95;1.20;;;;;;;;;;5074126;28;20105;-68
2022/07/14 13:44:18;;;;;;;2.88;1.10;;;;;;;;;;5075982;28;20048;-68
2022/07/14 13:46:46;;;;;;;4.43;1.15;;;;;;;;;;5074980;28;20052;-67
2022/07/14 13:49:14;;;;;;;5.00;1.10;;;;;;;;;;5085517;28;20074;-69
2022/07/14 13:54:23;;;;;;;6.25;1.58;;;;;;;;;;5064633;28;20512;-67
2022/07/14 13:56:50;;;;;;;4.32;1.40;;;;;;;;;;5076711;28;20063;-68
2022/07/14 13:59:17;;;;;;;3.00;1.17;;;;;;;;;;5083406;28;20112;-69
2022/07/14 14:01:44;;;;;;;4.80;1.48;;;;;;;;;;5084924;28;20129;-69
2022/07/14 14:04:13;;;;;;;5.97;1.55;;;;;;;;;;5082235;28;20044;-70
2022/07/14 14:06:42;;;;;;;6.13;1.60;;;;;;;;;;5082488;28;20494;-69
2022/07/14 14:09:10;;;;;;;4.68;1.40;;;;;;;;;;5079211;28;20113;-68
2022/07/14 14:11:38;;;;;;;6.60;2.15;;;;;;;;;;5080556;28;20131;-68
2022/07/14 14:14:05;;;;;;;5.07;1.58;;;;;;;;;;5082131;28;20050;-68
2022/07/14 14:16:33;;;;;;;4.57;1.60;;;;;;;;;;5085878;28;20052;-68
2022/07/14 14:19:00;;;;;;;3.30;1.45;;;;;;;;;;5074318;28;20063;-67
2022/07/14 14:21:29;;;;;;;8.85;1.73;;;;;;;;;;5074966;28;20051;-67
2022/07/14 14:23:56;;;;;;;8.38;1.65;;;;;;;;;;5075268;28;20451;-67
2022/07/14 14:26:23;;;;;;;9.68;1.85;;;;;;;;;;5076151;28;20042;-67
2022/07/14 14:28:51;;;;;;;3.92;1.33;;;;;;;;;;5070585;28;20044;-67
2022/07/14 14:31:18;;;;;;;9.75;1.92;;;;;;;;;;5070089;28;20058;-67
2022/07/14 14:33:46;;;;;;;5.18;1.60;;;;;;;;;;5073894;28;20048;-67
2022/07/14 14:36:13;;;;;;;5.05;1.50;;;;;;;;;;5079014;28;20048;-68
2022/07/14 14:38:41;;;;;;;5.97;1.60;;;;;;;;;;5075947;28;20850;-68
2022/07/14 14:41:09;;;;;;;8.38;1.60;;;;;;;;;;5073808;28;20057;-67
2022/07/14 14:43:36;;;;;;;8.93;1.75;;;;;;;;;;5075189;28;20048;-67
2022/07/14 14:46:04;;;;;;;4.25;1.85;;;;;;;;;;5078012;28;20032;-67
2022/07/14 14:48:31;;;;;;;5.65;1.58;;;;;;;;;;5077841;28;20444;-67
2022/07/14 14:50:58;;;;;;;9.32;2.03;;;;;;;;;;5079407;28;20036;-67
2022/07/14 14:53:25;;;;;;;8.07;1.60;;;;;;;;;;5080038;28;20052;-66
2022/07/14 14:55:54;;;;;;;6.18;1.92;;;;;;;;;;5079255;28;20135;-68
2022/07/14 14:58:21;;;;;;;8.32;1.60;;;;;;;;;;5079097;28;20089;-66
2022/07/14 15:00:48;;;;;;;7.55;1.52;;;;;;;;;;5078928;28;20109;-68
2022/07/14 15:03:16;;;;;;;8.15;1.90;;;;;;;;;;5080555;28;20047;-67
2022/07/14 15:05:44;;;;;;;7.68;1.90;;;;;;;;;;5077490;28;20101;-66
2022/07/14 15:08:12;;;;;;;11.70;2.40;;;;;;;;;;5078903;28;20052;-66